Aérodrome :
LOGIN :

S'inscrire | Disclaimer

   EN    FR    IT 

 










Légende :    VFR   VFR Marginal   IFR   IFR Intensif   IFR Très Intensif
Visi : 
Plafond : 
>= 8 km
>= 3000ft
5 à 8 km
1000 à 3000 ft
1500m à 5 km
500 à 1000 ft
800 à 1500m
200 à 500 ft
< 800m
< 200 ft
Symboles :   Orages  Brouillard  Fortes neiges  Fortes précipitations  Vent > 20 kt
SIGMETs :   Divers  Orages  Givrage  Turbulence  Onde Orograph.  Cendres Volcan.







- Altitude de l'aérodrome : 1910 ft
- Code IATA : RDZ
- Voir les cartes d'approche


LFCR - Rodez

DERNIER METAR :
  • 222330Z AUTO 31010KT 9999 FEW016 BKN023 OVC028 07/05 Q1027 TEMPO 4000 BR OVC003

METARs EXPIRÉS :
  • 222300Z AUTO 31012KT 9999 FEW007 OVC026 07/06 Q1027 TEMPO 4000 -DZRA OVC003
  • 222230Z AUTO 31013KT 9999 OVC007 07/06 Q1027 TEMPO 4000 -DZRA OVC003
  • 222200Z AUTO 30011KT 9999 OVC007 07/07 Q1026 TEMPO 4000 -DZRA OVC003
  • 222130Z AUTO 31014KT 9999 OVC006 07/07 Q1026 TEMPO 4000 -DZRA OVC003
  • 222100Z AUTO 31017KT 9999 OVC008 07/07 Q1025 TEMPO 4000 -DZRA OVC003

TAF TAF LFCR
Valide du 23 à 00h jusqu'au 24 à 00h UTC


222300Z 2300/2324 30008KT 9999 OVC007
TEMPO 2300/2303 4000 BR OVC003
BECMG 2303/2305 BKN015
BECMG 2306/2308 SCT013
PROB40
TEMPO 2313/2317 BKN013
BECMG 2317/2319 VRB02KT BKN025
Pas de NOTAMs connus pour ce terrain.
2 SIGMETs publiés pour la FIR Bordeaux (LFBB) :
 
Turbulence forte
LFBB SIGMET 7 VALID 230000/230400 LFPW
LFBB BORDEAUX FIR/UIR SEV TURB FCST SE OF LINE N4330 E00245 - N4230 E00200 SFC/FL060 STNR NC=
Onde orographique forte
LFBB SIGMET 6 VALID 222100/230100 LFPW
LFBB BORDEAUX FIR/UIR SEV MTW FCST SE OF LINE N4330 E00245 - N4230 E00145 SFC/FL280 STNR WKN=



MET'MAP, la Météo Aéronautique d'un coup d'oeil ! - Copyright ORBIFLY Décembre 2007 - Disclaimer

ORBIFLY MET'MAP TEAM :

Programmation & Développement : Alexandra Zaïnal
Conception & Développement : Baudouin d'Aumeries
Co-Programmation & Développement : Marc-Olivier Méhu
Soutien technique & logistique : Manuel Goepfert

Contact : metmap@orbifly.com




SOURCES & CREDITS :

   NOAA